createdAt,value
2019-02-16T00:00:05.917Z,102225.63
2019-02-16T00:00:51.257Z,102230.83
2019-02-16T00:01:24.407Z,102213.09
2019-02-16T00:01:57.565Z,102213.09
2019-02-16T00:02:30.698Z,102215.44
2019-02-16T00:03:02.012Z,102215.44
2019-02-16T00:03:33.265Z,102233.06
2019-02-16T00:04:05.438Z,102229.17
2019-02-16T00:04:36.697Z,102221.45
2019-02-16T00:05:07.872Z,102221.45
2019-02-16T00:05:39.212Z,102206.48
2019-02-16T00:06:10.404Z,102206.48
2019-02-16T00:06:41.678Z,102226.92
2019-02-16T00:07:12.862Z,102225.88
2019-02-16T00:07:44.147Z,102231.34
2019-02-16T00:08:15.390Z,102229.91
2019-02-16T00:08:46.645Z,102228.09
2019-02-16T00:09:17.845Z,102224.05
2019-02-16T00:09:49.092Z,102230.37
2019-02-16T00:10:20.292Z,102227.30
2019-02-16T00:10:51.546Z,102227.30
2019-02-16T00:11:22.756Z,102224.22
2019-02-16T00:11:54.026Z,102224.22
2019-02-16T00:12:25.193Z,102223.31
2019-02-16T00:12:56.450Z,102224.15
2019-02-16T00:13:27.682Z,102222.41
2019-02-16T00:13:58.903Z,102223.07
2019-02-16T00:14:30.239Z,102226.58
2019-02-16T00:15:01.570Z,102229.17
2019-02-16T00:15:32.787Z,102224.50
2019-02-16T00:16:04.071Z,102224.50
2019-02-16T00:16:35.305Z,102217.09
2019-02-16T00:17:59.233Z,102222.51
2019-02-16T00:18:30.547Z,102218.95
2019-02-16T00:19:01.834Z,102218.95
2019-02-16T00:19:33.115Z,102220.26
2019-02-16T00:20:07.797Z,102213.12
2019-02-16T00:20:39.044Z,102222.12
2019-02-16T00:21:10.277Z,102219.78
2019-02-16T00:21:41.551Z,102219.69
2019-02-16T00:22:12.739Z,102219.69
2019-02-16T00:22:43.986Z,102208.70
2019-02-16T00:23:15.166Z,102220.08
2019-02-16T00:23:49.548Z,102219.95
2019-02-16T00:24:27.497Z,102211.04
2019-02-16T00:24:58.735Z,102211.04
2019-02-16T00:25:29.919Z,102213.25
2019-02-16T00:26:01.207Z,102217.92
2019-02-16T00:26:32.399Z,102216.50
2019-02-16T00:27:03.777Z,102211.77
2019-02-16T00:27:34.976Z,102211.77
2019-02-16T00:28:06.253Z,102212.16
2019-02-16T00:28:37.466Z,102213.98
2019-02-16T00:29:09.000Z,102220.17
2019-02-16T00:29:40.192Z,102220.17
2019-02-16T00:30:11.454Z,102223.81
2019-02-16T00:30:42.695Z,102215.89
2019-02-16T00:31:14.084Z,102216.02
2019-02-16T00:31:45.274Z,102188.41
2019-02-16T00:32:16.546Z,102208.88
2019-02-16T00:32:48.114Z,102196.02
2019-02-16T00:33:19.422Z,102196.02
2019-02-16T00:33:50.676Z,102212.42
2019-02-16T00:34:21.966Z,102209.34
2019-02-16T00:34:53.239Z,102217.92
2019-02-16T00:35:24.556Z,102211.30
2019-02-16T00:35:55.861Z,102210.39
2019-02-16T00:36:27.228Z,102210.73
2019-02-16T00:36:58.508Z,102209.60
2019-02-16T00:37:29.815Z,102209.60
2019-02-16T00:38:01.095Z,102220.25
2019-02-16T00:38:32.388Z,102214.58
2019-02-16T00:39:04.057Z,102212.23
2019-02-16T00:39:35.226Z,102215.61
2019-02-16T00:40:07.225Z,102216.81
2019-02-16T00:40:38.384Z,102219.28
2019-02-16T00:41:09.741Z,102211.66
2019-02-16T00:41:40.916Z,102219.16
2019-02-16T00:42:12.172Z,102212.58
2019-02-16T00:42:43.367Z,102215.81
2019-02-16T00:43:14.614Z,102216.63
2019-02-16T00:43:45.859Z,102216.63
2019-02-16T00:44:17.177Z,102215.81
2019-02-16T00:44:48.465Z,102214.91
2019-02-16T00:45:19.738Z,102203.56
2019-02-16T00:45:51.038Z,102203.56
2019-02-16T00:46:22.371Z,102213.35
2019-02-16T00:46:53.722Z,102211.92
2019-02-16T00:47:25.015Z,102209.33
2019-02-16T00:47:56.299Z,102214.42
2019-02-16T00:48:27.601Z,102214.69
2019-02-16T00:48:58.881Z,102212.87
2019-02-16T00:49:31.091Z,102212.87
2019-02-16T00:50:02.457Z,102213.78
2019-02-16T00:50:33.645Z,102194.52
2019-02-16T00:51:13.156Z,102202.09
2019-02-16T00:51:38.000Z,102202.09
2019-02-16T00:52:09.285Z,102205.34
2019-02-16T00:52:40.475Z,102200.25
2019-02-16T00:53:12.101Z,102200.25
2019-02-16T00:53:43.259Z,102192.45
2019-02-16T00:54:14.542Z,102192.45
2019-02-16T00:54:45.757Z,102183.41
2019-02-16T00:55:17.034Z,102195.92
2019-02-16T00:55:48.276Z,102195.92
2019-02-16T00:56:19.463Z,102197.44
2019-02-16T00:56:50.795Z,102199.26
2019-02-16T00:57:23.231Z,102193.16
2019-02-16T00:57:54.514Z,102188.36
2019-02-16T00:58:25.797Z,102194.45
2019-02-16T00:58:57.000Z,102195.88
2019-02-16T00:59:28.291Z,102195.88
2019-02-16T00:59:59.509Z,102188.09
2019-02-16T01:00:30.788Z,102189.78
2019-02-16T01:01:02.066Z,102182.39
2019-02-16T01:01:33.510Z,102191.98
2019-02-16T01:02:04.702Z,102191.98
2019-02-16T01:02:36.099Z,102189.78
2019-02-16T01:03:07.266Z,102194.45
2019-02-16T01:03:38.528Z,102187.45
2019-02-16T01:04:09.764Z,102188.36
2019-02-16T01:04:41.000Z,102183.42
2019-02-16T01:05:12.239Z,102186.23
2019-02-16T01:05:43.448Z,102174.95
2019-02-16T01:06:14.660Z,102180.75
2019-02-16T01:06:45.870Z,102174.64
2019-02-16T01:07:17.111Z,102174.64
2019-02-16T01:07:48.348Z,102176.76
2019-02-16T01:08:19.558Z,102176.24
2019-02-16T01:08:50.787Z,102183.91
2019-02-16T01:09:22.005Z,102179.40
2019-02-16T01:09:53.231Z,102182.39
2019-02-16T01:10:24.445Z,102165.50
2019-02-16T01:10:55.697Z,102180.48
2019-02-16T01:11:26.986Z,102184.63
2019-02-16T01:11:58.220Z,102177.92
2019-02-16T01:12:29.436Z,102177.92
2019-02-16T01:13:00.662Z,102178.35
2019-02-16T01:13:31.881Z,102178.35
2019-02-16T01:14:03.161Z,102183.97
2019-02-16T01:14:34.370Z,102180.89
2019-02-16T01:15:07.027Z,102180.89
2019-02-16T01:15:38.243Z,102182.19
2019-02-16T01:16:09.713Z,102183.97
2019-02-16T01:16:40.948Z,102185.69
2019-02-16T01:17:12.221Z,102185.69
2019-02-16T01:17:43.441Z,102181.38
2019-02-16T01:18:15.727Z,102180.50
2019-02-16T01:18:47.047Z,102177.26
2019-02-16T01:19:18.275Z,102169.34
2019-02-16T01:19:49.449Z,102169.34
2019-02-16T01:20:20.707Z,102154.02
2019-02-16T01:20:51.898Z,102154.02
2019-02-16T01:21:23.276Z,102169.34
2019-02-16T01:21:54.546Z,102167.27
2019-02-16T01:22:25.818Z,102167.27
2019-02-16T01:22:57.016Z,102164.28
2019-02-16T01:23:28.280Z,102168.53
2019-02-16T01:24:00.500Z,102168.53
2019-02-16T01:24:31.754Z,102164.25
2019-02-16T01:25:04.140Z,102167.84
2019-02-16T01:25:35.371Z,102162.17
2019-02-16T01:26:06.580Z,102147.58
2019-02-16T01:26:37.849Z,102147.58
2019-02-16T01:27:09.167Z,102163.17
2019-02-16T01:27:40.470Z,102163.17
2019-02-16T01:28:11.684Z,102164.98
2019-02-16T01:28:42.930Z,102140.41
2019-02-16T01:29:14.202Z,102155.13
2019-02-16T01:29:45.398Z,102155.13
2019-02-16T01:30:16.623Z,102159.02
2019-02-16T01:30:48.117Z,102156.42
2019-02-16T01:31:19.451Z,102149.67
2019-02-16T01:31:50.686Z,102152.56
2019-02-16T01:32:21.902Z,102151.95
2019-02-16T01:32:53.121Z,102157.80
2019-02-16T01:33:24.490Z,102145.90
2019-02-16T01:33:55.694Z,102152.78
2019-02-16T01:34:26.974Z,102151.34
2019-02-16T01:34:58.166Z,102148.75
2019-02-16T01:35:29.403Z,102145.25
2019-02-16T01:36:00.570Z,102138.28
2019-02-16T01:36:31.835Z,102141.14
2019-02-16T01:37:03.035Z,102141.14
2019-02-16T01:37:34.273Z,102137.93
2019-02-16T01:38:05.457Z,102139.09
2019-02-16T01:38:36.705Z,102135.59
2019-02-16T01:39:07.881Z,102134.30
2019-02-16T01:39:39.185Z,102137.19
2019-02-16T01:40:10.376Z,102130.80
2019-02-16T01:40:41.633Z,102130.80
2019-02-16T01:41:12.823Z,102130.41
2019-02-16T01:41:44.077Z,102129.11
2019-02-16T01:42:15.263Z,102126.77
2019-02-16T01:42:46.529Z,102126.77
2019-02-16T01:43:17.705Z,102122.59
2019-02-16T01:43:48.971Z,102122.33
2019-02-16T01:44:20.127Z,102122.33
2019-02-16T01:44:51.367Z,102124.40
2019-02-16T01:45:22.589Z,102118.30
2019-02-16T01:45:53.934Z,102121.80
2019-02-16T01:46:25.121Z,102124.92
2019-02-16T01:46:56.408Z,102123.62
2019-02-16T01:47:27.580Z,102130.76
2019-02-16T01:47:58.820Z,102128.07
2019-02-16T01:48:29.998Z,102123.53
2019-02-16T01:49:01.246Z,102132.48
2019-02-16T01:49:32.426Z,102128.59
2019-02-16T01:50:05.772Z,102129.11
2019-02-16T01:50:36.982Z,102128.33
2019-02-16T01:51:08.262Z,102124.96
2019-02-16T01:51:39.536Z,102124.05
2019-02-16T01:52:10.827Z,102125.18
2019-02-16T01:52:41.979Z,102123.10
2019-02-16T01:53:13.243Z,102119.73
2019-02-16T01:53:44.472Z,102119.73
2019-02-16T01:54:15.722Z,102124.92
2019-02-16T01:54:46.946Z,102121.64
2019-02-16T01:55:18.172Z,102117.45
2019-02-16T01:55:49.404Z,102121.47
2019-02-16T01:56:20.632Z,102115.28
2019-02-16T01:56:51.851Z,102116.06
2019-02-16T01:57:23.067Z,102118.27
2019-02-16T01:57:54.291Z,102118.27
2019-02-16T01:58:25.516Z,102115.54
2019-02-16T01:58:56.699Z,102118.82
2019-02-16T01:59:28.360Z,102118.13
2019-02-16T01:59:59.581Z,102123.84
2019-02-16T02:00:30.783Z,102116.48
2019-02-16T02:01:02.027Z,102116.48
2019-02-16T02:01:33.266Z,102111.98
2019-02-16T02:02:04.534Z,102115.23
2019-02-16T02:02:35.727Z,102115.23
2019-02-16T02:03:06.998Z,102114.33
2019-02-16T02:03:38.186Z,102119.13
2019-02-16T02:04:09.754Z,102111.90
2019-02-16T02:04:40.941Z,102110.99
2019-02-16T02:05:12.252Z,102113.09
2019-02-16T02:05:43.468Z,102107.91
2019-02-16T02:06:14.760Z,102107.91
2019-02-16T02:06:46.048Z,102107.91
2019-02-16T02:07:17.283Z,102103.11
2019-02-16T02:07:48.497Z,102110.12
2019-02-16T02:08:19.767Z,102100.61
2019-02-16T02:08:51.988Z,102108.13
2019-02-16T02:09:23.651Z,102106.31
2019-02-16T02:09:54.831Z,102106.84
2019-02-16T02:10:26.061Z,102104.50
2019-02-16T02:10:57.279Z,102102.34
2019-02-16T02:11:28.511Z,102096.50
2019-02-16T02:11:59.743Z,102090.74
2019-02-16T02:12:30.956Z,102090.74
2019-02-16T02:13:02.236Z,102101.13
2019-02-16T02:13:33.477Z,102101.26
2019-02-16T02:14:04.691Z,102106.05
2019-02-16T02:14:35.938Z,102098.28
2019-02-16T02:15:08.439Z,102101.35
2019-02-16T02:15:39.712Z,102097.75
2019-02-16T02:16:10.940Z,102102.95
2019-02-16T02:16:42.214Z,102096.33
2019-02-16T02:17:13.438Z,102098.02
2019-02-16T02:17:44.778Z,102096.98
2019-02-16T02:18:15.984Z,102096.68
2019-02-16T02:18:47.244Z,102093.70
2019-02-16T02:19:18.466Z,102096.12
2019-02-16T02:19:49.691Z,102094.83
2019-02-16T02:20:21.116Z,102096.77
2019-02-16T02:20:52.328Z,102096.86
2019-02-16T02:21:23.542Z,102091.19
2019-02-16T02:21:54.770Z,102090.38
2019-02-16T02:22:26.979Z,102092.48
2019-02-16T02:22:58.180Z,102083.45
2019-02-16T02:23:29.410Z,102085.52
2019-02-16T02:24:00.591Z,102088.38
2019-02-16T02:24:31.823Z,102086.99
2019-02-16T02:25:06.903Z,102081.16
2019-02-16T02:25:38.084Z,102087.55
2019-02-16T02:26:09.377Z,102084.31
2019-02-16T02:26:40.610Z,102077.99
2019-02-16T02:27:12.136Z,102083.96
2019-02-16T02:27:44.307Z,102083.96
2019-02-16T02:28:15.549Z,102079.20
2019-02-16T02:28:46.746Z,102078.77
2019-02-16T02:29:17.969Z,102077.77
2019-02-16T02:29:49.274Z,102082.22
2019-02-16T02:30:20.476Z,102082.22
2019-02-16T02:30:51.661Z,102080.92
2019-02-16T02:31:22.907Z,102076.91
2019-02-16T02:31:54.083Z,102077.69
2019-02-16T02:32:25.360Z,102077.84
2019-02-16T02:32:56.555Z,102076.30
2019-02-16T02:33:27.817Z,102076.30
2019-02-16T02:33:59.026Z,102081.09
2019-02-16T02:34:30.256Z,102060.81
2019-02-16T02:35:01.550Z,102074.64
2019-02-16T02:35:32.807Z,102074.64
2019-02-16T02:36:03.998Z,102075.55
2019-02-16T02:36:35.237Z,102075.55
2019-02-16T02:37:06.441Z,102070.14
2019-02-16T02:37:37.785Z,102071.02
2019-02-16T02:38:09.120Z,102067.13
2019-02-16T02:38:40.367Z,102067.94
2019-02-16T02:39:11.554Z,102076.20
2019-02-16T02:39:42.839Z,102068.84
2019-02-16T02:40:14.154Z,102068.72
2019-02-16T02:40:45.467Z,102078.70
2019-02-16T02:41:16.732Z,102071.57
2019-02-16T02:41:48.068Z,102070.80
2019-02-16T02:42:19.343Z,102070.80
2019-02-16T02:42:50.633Z,102070.41
2019-02-16T02:43:21.923Z,102068.72
2019-02-16T02:43:53.208Z,102074.68
2019-02-16T02:44:24.546Z,102074.55
2019-02-16T02:44:55.835Z,102070.27
2019-02-16T02:45:27.076Z,102070.05
2019-02-16T02:45:58.293Z,102070.05
2019-02-16T02:46:29.531Z,102074.84
2019-02-16T02:47:00.726Z,102073.55
2019-02-16T02:47:31.985Z,102070.56
2019-02-16T02:48:03.206Z,102067.68
2019-02-16T02:48:34.452Z,102067.68
2019-02-16T02:49:05.647Z,102073.39
2019-02-16T02:49:36.917Z,102069.23
2019-02-16T02:50:08.114Z,102069.46
2019-02-16T02:50:39.542Z,102073.34
2019-02-16T02:51:10.774Z,102053.98
2019-02-16T02:51:51.648Z,102064.53
2019-02-16T02:52:15.145Z,102048.70
2019-02-16T02:52:46.381Z,102048.70
2019-02-16T02:53:17.589Z,102048.83
2019-02-16T02:53:48.955Z,102048.83
2019-02-16T02:54:20.222Z,102062.80
2019-02-16T02:54:51.493Z,102062.66
2019-02-16T02:55:22.715Z,102058.16
2019-02-16T02:55:54.016Z,102060.23
2019-02-16T02:56:25.291Z,102062.44
2019-02-16T02:56:56.591Z,102056.34
2019-02-16T02:57:27.897Z,102059.55
2019-02-16T02:57:59.193Z,102061.49
2019-02-16T02:58:30.479Z,102058.91
2019-02-16T02:59:02.914Z,102060.81
2019-02-16T02:59:34.103Z,102063.92
2019-02-16T03:00:08.401Z,102041.86
2019-02-16T03:00:39.661Z,102054.63
2019-02-16T03:01:10.898Z,102053.72
2019-02-16T03:01:42.163Z,102057.86
2019-02-16T03:02:13.388Z,102057.86
2019-02-16T03:02:44.687Z,102053.06
2019-02-16T03:03:15.947Z,102060.97
2019-02-16T03:03:47.168Z,102055.10
2019-02-16T03:04:19.374Z,102060.59
2019-02-16T03:04:50.604Z,102058.61
2019-02-16T03:05:21.838Z,102057.83
2019-02-16T03:05:53.065Z,102055.92
2019-02-16T03:06:24.298Z,102055.92
2019-02-16T03:06:55.540Z,102060.45
2019-02-16T03:07:27.769Z,102056.86
2019-02-16T03:07:58.996Z,102059.20
2019-02-16T03:08:30.259Z,102054.70
2019-02-16T03:09:01.551Z,102052.40
2019-02-16T03:09:32.774Z,102060.82
2019-02-16T03:10:05.194Z,102061.89
2019-02-16T03:10:36.454Z,102055.67
2019-02-16T03:11:07.656Z,102051.69
2019-02-16T03:11:39.164Z,102049.36
2019-02-16T03:12:10.389Z,102054.92
2019-02-16T03:12:41.682Z,102050.81
2019-02-16T03:13:12.860Z,102052.27
2019-02-16T03:13:44.265Z,102050.84
2019-02-16T03:14:15.492Z,102055.25
2019-02-16T03:14:46.811Z,102048.25
2019-02-16T03:15:18.057Z,102052.27
2019-02-16T03:15:49.314Z,102048.61
2019-02-16T03:16:20.498Z,102048.22
2019-02-16T03:16:51.773Z,102052.62
2019-02-16T03:17:24.166Z,102057.81
2019-02-16T03:17:55.438Z,102049.52
2019-02-16T03:18:26.678Z,102047.19
2019-02-16T03:18:57.958Z,102052.50
2019-02-16T03:19:29.262Z,102048.74
2019-02-16T03:20:00.566Z,102051.33
2019-02-16T03:20:31.945Z,102049.26
2019-02-16T03:21:03.205Z,102051.04
2019-02-16T03:21:34.418Z,102053.24
2019-02-16T03:22:05.663Z,102051.55
2019-02-16T03:22:59.329Z,102051.30
2019-02-16T03:23:30.599Z,102054.12
2019-02-16T03:24:01.751Z,102047.08
2019-02-16T03:24:32.999Z,102048.60
2019-02-16T03:25:06.362Z,102049.25
2019-02-16T03:25:37.631Z,102052.84
2019-02-16T03:26:41.051Z,102054.27
2019-02-16T03:27:29.711Z,102049.99
2019-02-16T03:28:21.789Z,102053.88
2019-02-16T03:29:07.880Z,102059.45
2019-02-16T03:29:59.443Z,102047.88
2019-02-16T03:31:26.183Z,102056.31
2019-02-16T03:32:37.163Z,102056.31
2019-02-16T03:33:22.841Z,102053.20
2019-02-16T03:34:17.336Z,102061.36
2019-02-16T03:35:02.894Z,102057.25
2019-02-16T03:36:08.527Z,102057.64
2019-02-16T03:37:16.776Z,102061.41
2019-02-16T03:38:02.531Z,102051.42
2019-02-16T03:38:57.691Z,102054.86
2019-02-16T03:39:29.381Z,102054.34
2019-02-16T03:40:00.673Z,102056.94
2019-02-16T03:40:31.995Z,102054.56
2019-02-16T03:41:03.245Z,102055.60
2019-02-16T03:41:34.435Z,102052.84
2019-02-16T03:42:05.709Z,102050.09
2019-02-16T03:42:36.877Z,102048.79
2019-02-16T03:43:08.143Z,102058.25
2019-02-16T03:43:39.508Z,102049.70
2019-02-16T03:44:10.808Z,102048.02
2019-02-16T03:44:42.054Z,102049.70
2019-02-16T03:45:13.298Z,102049.44
2019-02-16T03:45:44.506Z,102050.44
2019-02-16T03:46:15.784Z,102043.01
2019-02-16T03:46:47.324Z,102043.23
2019-02-16T03:47:18.595Z,102048.67
2019-02-16T03:47:49.819Z,102046.98
2019-02-16T03:48:21.151Z,102045.56
2019-02-16T03:48:52.363Z,102042.45
2019-02-16T03:49:23.557Z,102048.16
2019-02-16T03:49:54.773Z,102047.77
2019-02-16T03:50:25.980Z,102047.37
2019-02-16T03:50:57.198Z,102041.67
2019-02-16T03:51:28.429Z,102040.37
2019-02-16T03:51:59.755Z,102040.37
2019-02-16T03:52:30.988Z,102040.77
2019-02-16T03:53:02.217Z,102040.37
2019-02-16T03:53:33.468Z,102039.98
2019-02-16T03:54:04.687Z,102041.28
2019-02-16T03:54:35.940Z,102030.78
2019-02-16T03:55:07.143Z,102034.28
2019-02-16T03:55:38.382Z,102038.95
2019-02-16T03:56:09.648Z,102029.27
2019-02-16T03:56:41.027Z,102013.83
2019-02-16T03:57:12.216Z,102013.83
2019-02-16T03:57:43.516Z,102020.66
2019-02-16T03:58:14.698Z,102029.70
2019-02-16T03:58:46.032Z,102029.70
2019-02-16T03:59:17.273Z,102011.75
2019-02-16T03:59:48.519Z,102026.20
2019-02-16T04:00:19.703Z,102026.20
2019-02-16T04:00:51.751Z,102023.90
2019-02-16T04:01:22.949Z,102027.44
2019-02-16T04:01:54.252Z,102027.44
2019-02-16T04:02:25.452Z,102025.23
2019-02-16T04:02:56.707Z,102022.91
2019-02-16T04:03:27.875Z,102029.73
2019-02-16T04:03:59.124Z,102021.70
2019-02-16T04:04:30.318Z,102030.37
2019-02-16T04:05:01.589Z,102029.47
2019-02-16T04:05:32.757Z,102029.47
2019-02-16T04:06:05.061Z,102031.94
2019-02-16T04:06:36.247Z,102027.56
2019-02-16T04:07:07.504Z,102028.86
2019-02-16T04:07:38.687Z,102030.55
2019-02-16T04:08:09.961Z,102031.72
2019-02-16T04:08:41.155Z,102032.49
2019-02-16T04:09:12.420Z,102028.38
2019-02-16T04:09:43.603Z,102028.25
2019-02-16T04:10:14.963Z,102028.25
2019-02-16T04:10:46.141Z,102030.45
2019-02-16T04:11:17.397Z,102028.64
2019-02-16T04:11:48.587Z,102034.90
2019-02-16T04:12:19.862Z,102034.90
2019-02-16T04:12:51.040Z,102026.90
2019-02-16T04:13:22.293Z,102027.16
2019-02-16T04:13:53.489Z,102033.55
2019-02-16T04:14:24.736Z,102028.36
2019-02-16T04:14:55.938Z,102028.36
2019-02-16T04:15:27.192Z,102029.53
2019-02-16T04:15:58.390Z,102037.08
2019-02-16T04:16:29.727Z,102034.23
2019-02-16T04:17:01.009Z,102033.23
2019-02-16T04:17:32.301Z,102028.43
2019-02-16T04:18:03.474Z,102028.43
2019-02-16T04:18:34.752Z,102027.00
2019-02-16T04:19:06.012Z,102029.11
2019-02-16T04:19:37.291Z,102027.98
2019-02-16T04:20:08.605Z,102036.92
2019-02-16T04:20:39.877Z,102036.92
2019-02-16T04:21:11.180Z,102029.40
2019-02-16T04:21:42.691Z,102028.91
2019-02-16T04:22:23.927Z,102032.80
2019-02-16T04:22:47.160Z,102028.01
2019-02-16T04:23:18.365Z,102030.98
2019-02-16T04:23:49.619Z,102032.67
2019-02-16T04:24:20.899Z,102027.36
2019-02-16T04:24:52.222Z,102029.47
2019-02-16T04:25:23.439Z,102028.66
2019-02-16T04:25:54.706Z,102023.09
2019-02-16T04:26:25.889Z,102031.25
2019-02-16T04:26:57.157Z,102022.70
2019-02-16T04:27:28.371Z,102017.91
2019-02-16T04:27:59.649Z,102021.41
2019-02-16T04:28:30.943Z,102014.41
2019-02-16T04:29:02.180Z,102013.50
2019-02-16T04:29:33.354Z,102016.22
2019-02-16T04:30:06.937Z,102009.97
2019-02-16T04:30:39.274Z,102011.39
2019-02-16T04:31:10.585Z,102004.92
2019-02-16T04:31:41.794Z,102008.41
2019-02-16T04:32:13.072Z,102004.53
2019-02-16T04:32:44.297Z,102001.94
2019-02-16T04:33:15.603Z,102005.53
2019-02-16T04:33:46.786Z,102003.36
2019-02-16T04:34:18.032Z,102005.05
2019-02-16T04:34:49.206Z,102006.95
2019-02-16T04:35:20.454Z,102004.20
2019-02-16T04:35:51.707Z,101996.94
2019-02-16T04:36:22.952Z,102000.28
2019-02-16T04:36:54.142Z,102005.59
2019-02-16T04:37:25.410Z,102006.49
2019-02-16T04:37:56.607Z,102002.31
2019-02-16T04:38:27.862Z,102003.48
2019-02-16T04:38:59.053Z,102007.37
2019-02-16T04:39:30.344Z,102005.33
2019-02-16T04:40:01.717Z,102000.83
2019-02-16T04:40:32.981Z,102000.05
2019-02-16T04:41:04.165Z,102004.72
2019-02-16T04:41:35.435Z,102003.03
2019-02-16T04:42:06.620Z,102004.59
2019-02-16T04:42:37.885Z,102004.98
2019-02-16T04:43:09.137Z,101999.80
2019-02-16T04:43:40.533Z,102001.09
2019-02-16T04:44:11.705Z,102003.97
2019-02-16T04:44:43.053Z,102001.52
2019-02-16T04:45:14.284Z,102000.22
2019-02-16T04:45:45.661Z,101998.92
2019-02-16T04:46:16.885Z,102001.00
2019-02-16T04:46:48.150Z,101999.95
2019-02-16T04:47:19.339Z,101999.05
2019-02-16T04:47:50.585Z,102000.77
2019-02-16T04:48:21.803Z,101989.63
2019-02-16T04:48:53.154Z,101999.95
2019-02-16T04:49:24.369Z,101994.91
2019-02-16T04:49:55.658Z,102000.87
2019-02-16T04:50:26.887Z,102000.87
2019-02-16T04:50:58.201Z,102003.36
2019-02-16T04:51:29.403Z,101997.75
2019-02-16T04:52:00.659Z,101999.05
2019-02-16T04:52:34.700Z,101979.42
2019-02-16T04:53:05.019Z,101979.42
2019-02-16T04:53:36.314Z,101998.18
2019-02-16T04:54:07.579Z,101998.18
2019-02-16T04:54:40.333Z,101992.58
2019-02-16T04:55:12.017Z,101996.72
2019-02-16T04:55:43.242Z,102002.39
2019-02-16T04:56:14.538Z,101994.91
2019-02-16T04:56:45.866Z,101997.53
2019-02-16T04:57:17.115Z,101995.46
2019-02-16T04:57:48.347Z,101995.46
2019-02-16T04:58:19.726Z,102000.61
2019-02-16T04:58:50.923Z,102000.61
2019-02-16T04:59:22.188Z,102003.03
2019-02-16T04:59:53.560Z,101975.12
2019-02-16T05:00:24.843Z,102001.02
2019-02-16T05:00:56.048Z,102001.02
2019-02-16T05:01:27.305Z,101995.84
2019-02-16T05:01:58.522Z,101999.72
2019-02-16T05:02:29.769Z,101999.37
2019-02-16T05:03:00.954Z,101998.76
2019-02-16T05:03:32.193Z,101999.02
2019-02-16T05:04:03.438Z,102003.68
2019-02-16T05:04:34.708Z,101998.50
2019-02-16T05:05:06.022Z,101998.92
2019-02-16T05:05:37.301Z,101998.92
2019-02-16T05:06:08.630Z,102003.30
2019-02-16T05:06:39.905Z,102003.68
2019-02-16T05:07:11.184Z,102003.59
2019-02-16T05:07:42.785Z,101994.68
2019-02-16T05:08:14.079Z,102003.23
2019-02-16T05:08:45.364Z,101998.70
2019-02-16T05:09:16.645Z,101993.52
2019-02-16T05:09:47.835Z,101993.94
2019-02-16T05:10:19.168Z,101993.42
2019-02-16T05:10:50.349Z,101992.22
2019-02-16T05:11:21.615Z,101993.13
2019-02-16T05:11:52.876Z,101993.13
2019-02-16T05:12:24.158Z,101986.65
2019-02-16T05:12:55.346Z,101991.05
2019-02-16T05:13:26.597Z,101982.28
2019-02-16T05:13:57.819Z,101985.65
2019-02-16T05:14:29.086Z,101986.42
2019-02-16T05:15:00.317Z,101983.96
2019-02-16T05:15:31.646Z,101983.96
2019-02-16T05:16:02.865Z,101983.05
2019-02-16T05:16:34.099Z,101979.33
2019-02-16T05:17:05.324Z,101965.02
2019-02-16T05:17:36.594Z,101965.02
2019-02-16T05:18:07.786Z,101964.80
2019-02-16T05:18:39.087Z,101984.94
2019-02-16T05:19:10.262Z,101984.94
2019-02-16T05:19:41.518Z,101980.92
2019-02-16T05:20:12.697Z,101984.32
2019-02-16T05:20:43.970Z,101986.00
2019-02-16T05:21:15.206Z,101985.27
2019-02-16T05:21:46.546Z,101986.95
2019-02-16T05:22:17.724Z,101984.22
2019-02-16T05:22:49.026Z,101985.13
2019-02-16T05:23:20.298Z,101986.42
2019-02-16T05:23:51.573Z,101985.00
2019-02-16T05:24:22.757Z,101986.69
2019-02-16T05:24:54.012Z,101982.57
2019-02-16T05:25:25.241Z,101989.56
2019-02-16T05:25:56.496Z,101992.54
2019-02-16T05:26:27.677Z,101986.36
2019-02-16T05:26:58.927Z,101987.66
2019-02-16T05:27:30.110Z,101986.36
2019-02-16T05:28:01.387Z,101984.25
2019-02-16T05:28:32.554Z,101986.84
2019-02-16T05:29:03.825Z,101986.06
2019-02-16T05:29:35.041Z,101981.66
2019-02-16T05:30:07.481Z,101985.68
2019-02-16T05:30:38.682Z,101985.00
2019-02-16T05:31:09.965Z,101985.91
2019-02-16T05:31:41.273Z,101989.41
2019-02-16T05:32:12.455Z,101984.52
2019-02-16T05:32:44.650Z,101983.61
2019-02-16T05:33:15.909Z,101984.52
2019-02-16T05:33:47.084Z,101984.09
2019-02-16T05:34:18.292Z,101984.09
2019-02-16T05:34:49.545Z,101986.69
2019-02-16T05:35:21.760Z,101990.18
2019-02-16T05:35:52.933Z,101994.06
2019-02-16T05:36:24.184Z,101986.69
2019-02-16T05:36:55.372Z,101981.92
2019-02-16T05:37:26.608Z,101984.77
2019-02-16T05:37:57.794Z,101988.14
2019-02-16T05:38:29.039Z,101988.14
2019-02-16T05:39:01.223Z,101981.56
2019-02-16T05:39:32.484Z,101992.70
2019-02-16T05:40:07.013Z,101992.96
2019-02-16T05:40:38.371Z,101991.56
2019-02-16T05:41:09.583Z,101987.94
2019-02-16T05:41:40.851Z,101988.84
2019-02-16T05:42:12.136Z,101991.44
2019-02-16T05:42:43.367Z,101982.14
2019-02-16T05:43:14.606Z,101987.19
2019-02-16T05:43:45.849Z,101988.88
2019-02-16T05:44:17.074Z,101991.98
2019-02-16T05:44:48.314Z,101983.30
2019-02-16T05:45:19.532Z,101991.46
2019-02-16T05:45:50.776Z,101988.77
2019-02-16T05:46:21.991Z,101994.21
2019-02-16T05:46:53.211Z,101996.80
2019-02-16T05:47:25.442Z,101990.98
2019-02-16T05:47:56.676Z,101992.76
2019-02-16T05:48:27.909Z,101994.57
2019-02-16T05:48:59.101Z,101995.48
2019-02-16T05:49:30.331Z,101993.66
2019-02-16T05:50:01.669Z,101998.45
2019-02-16T05:50:32.855Z,101991.59
2019-02-16T05:51:04.080Z,101998.30
2019-02-16T05:51:35.294Z,102000.11
2019-02-16T05:52:06.530Z,101998.43
2019-02-16T05:52:37.767Z,102006.20
2019-02-16T05:53:09.142Z,102006.20
2019-02-16T05:53:40.434Z,101997.39
2019-02-16T05:54:11.695Z,102000.66
2019-02-16T05:54:42.892Z,102009.33
2019-02-16T05:55:14.149Z,101988.15
2019-02-16T05:55:45.347Z,102003.95
2019-02-16T05:56:16.746Z,102003.95
2019-02-16T05:56:48.242Z,102006.80
2019-02-16T05:57:19.543Z,102006.17
2019-02-16T05:57:50.844Z,102006.43
2019-02-16T05:58:22.129Z,102007.49
2019-02-16T05:58:53.428Z,102007.49
2019-02-16T05:59:24.755Z,102011.77
2019-02-16T05:59:56.054Z,102015.12
2019-02-16T06:00:29.234Z,102010.63
2019-02-16T06:01:00.413Z,102011.01
2019-02-16T06:01:31.633Z,102015.28
2019-02-16T06:02:02.866Z,102012.17
2019-02-16T06:02:34.048Z,102017.34
2019-02-16T06:03:05.333Z,102011.91
2019-02-16T06:03:36.558Z,102020.82
2019-02-16T06:04:07.739Z,102022.73
2019-02-16T06:04:38.926Z,102019.14
2019-02-16T06:05:10.150Z,102021.34